Terminal Aerodrome Forecast
Issued by NWS

Home | Current Version | Previous Version | Text Only | Print | Product List | Glossary On
Versions: 1 2 3 4 5 6 7 8 9 10 11 12 13
000
FTUS45 KRIW 192300
TAFCPR
TAF
KCPR 192320Z 2000/2024 29010G18KT P6SM SKC
     FM200100 01011KT P6SM SKC
     FM200600 04006KT P6SM SKC
     FM201200 VRB04KT P6SM SKC=

USA.gov is the U.S. government's official web portal to all federal, state and local government web resources and services.